createdAt,value
2022-12-11T00:00:59.947Z,-1.50
2022-12-11T00:03:28.014Z,-1.50
2022-12-11T00:05:56.121Z,-1.50
2022-12-11T00:08:24.219Z,-1.50
2022-12-11T00:10:52.376Z,-1.50
2022-12-11T00:13:20.483Z,-1.50
2022-12-11T00:15:49.934Z,-1.40
2022-12-11T00:18:18.166Z,-1.40
2022-12-11T00:20:46.283Z,-1.40
2022-12-11T00:23:14.429Z,-1.40
2022-12-11T00:25:44.293Z,-1.40
2022-12-11T00:28:12.721Z,-1.40
2022-12-11T00:30:42.325Z,-1.50
2022-12-11T00:33:13.130Z,-1.50
2022-12-11T00:35:42.031Z,-1.50
2022-12-11T00:38:10.607Z,-1.50
2022-12-11T00:40:38.848Z,-1.50
2022-12-11T00:43:06.924Z,-1.50
2022-12-11T00:45:39.927Z,-1.50
2022-12-11T00:48:08.999Z,-1.40
2022-12-11T00:50:38.882Z,-1.40
2022-12-11T00:53:08.172Z,-1.30
2022-12-11T00:55:39.038Z,-1.20
2022-12-11T00:58:07.775Z,-1.00
2022-12-11T01:00:36.190Z,-0.90
2022-12-11T01:03:04.833Z,-0.90
2022-12-11T01:05:33.320Z,-0.90
2022-12-11T01:08:02.870Z,-0.80
2022-12-11T01:10:31.005Z,-0.80
2022-12-11T01:13:01.446Z,-0.80
2022-12-11T01:15:32.097Z,-0.80
2022-12-11T01:18:00.220Z,-0.80
2022-12-11T01:20:29.212Z,-0.80
2022-12-11T01:22:59.954Z,-0.80
2022-12-11T01:25:30.400Z,-0.80
2022-12-11T01:27:58.456Z,-0.90
2022-12-11T01:30:27.627Z,-1.00
2022-12-11T01:32:55.700Z,-1.10
2022-12-11T01:35:23.853Z,-1.20
2022-12-11T01:37:51.902Z,-1.20
2022-12-11T01:40:21.672Z,-1.30
2022-12-11T01:42:51.390Z,-1.30
2022-12-11T01:45:40.777Z,-1.30
2022-12-11T01:48:12.181Z,-1.30
2022-12-11T01:50:45.092Z,-1.30
2022-12-11T01:53:17.700Z,-1.30
2022-12-11T01:55:47.545Z,-1.40
2022-12-11T01:58:19.374Z,-1.40
2022-12-11T02:00:47.675Z,-1.50
2022-12-11T02:03:15.864Z,-1.50
2022-12-11T02:05:44.005Z,-1.40
2022-12-11T02:08:12.745Z,-1.50
2022-12-11T02:10:50.546Z,-1.50
2022-12-11T02:13:27.230Z,-1.50
2022-12-11T02:16:01.787Z,-1.50
2022-12-11T02:18:35.929Z,-1.50
2022-12-11T02:21:11.947Z,-1.50
2022-12-11T02:24:01.743Z,-1.50
2022-12-11T02:26:46.626Z,-1.50
2022-12-11T02:29:21.585Z,-1.50
2022-12-11T02:31:55.393Z,-1.50
2022-12-11T02:34:29.918Z,-1.50
2022-12-11T02:37:03.155Z,-1.50
2022-12-11T02:39:34.445Z,-1.60
2022-12-11T02:42:04.097Z,-1.60
2022-12-11T02:44:35.775Z,-1.60
2022-12-11T02:47:08.285Z,-1.60
2022-12-11T02:49:37.215Z,-1.60
2022-12-11T02:52:07.436Z,-1.60
2022-12-11T02:54:38.833Z,-1.70
2022-12-11T02:57:11.302Z,-1.70
2022-12-11T02:59:43.725Z,-1.80
2022-12-11T03:02:13.636Z,-1.70
2022-12-11T03:04:43.108Z,-1.80
2022-12-11T03:07:15.209Z,-1.80
2022-12-11T03:09:44.870Z,-1.70
2022-12-11T03:12:15.029Z,-1.50
2022-12-11T03:14:45.233Z,-1.50
2022-12-11T03:17:18.300Z,-1.40
2022-12-11T03:19:56.559Z,-1.50
2022-12-11T03:22:33.036Z,-1.50
2022-12-11T03:25:03.824Z,-1.70
2022-12-11T03:27:43.742Z,-1.70
2022-12-11T03:30:17.446Z,-1.70
2022-12-11T03:32:50.928Z,-1.80
2022-12-11T03:35:23.394Z,-1.80
2022-12-11T03:37:53.359Z,-1.70
2022-12-11T03:40:23.377Z,-1.70
2022-12-11T03:42:53.716Z,-1.80
2022-12-11T03:45:25.957Z,-1.70
2022-12-11T03:47:57.021Z,-1.80
2022-12-11T03:50:27.615Z,-1.80
2022-12-11T03:52:56.258Z,-1.80
2022-12-11T03:55:24.695Z,-1.70
2022-12-11T03:57:52.872Z,-1.70
2022-12-11T04:00:24.171Z,-1.70
2022-12-11T04:03:12.752Z,-1.80
2022-12-11T04:05:42.092Z,-1.80
2022-12-11T04:08:10.323Z,-1.70
2022-12-11T04:10:38.517Z,-1.70
2022-12-11T04:13:07.014Z,-1.70
2022-12-11T04:15:35.715Z,-1.60
2022-12-11T04:18:21.777Z,-1.70
2022-12-11T04:21:09.614Z,-1.70
2022-12-11T04:23:55.185Z,-1.70
2022-12-11T04:26:23.326Z,-1.60
2022-12-11T04:28:51.992Z,-1.40
2022-12-11T04:31:23.068Z,-1.50
2022-12-11T04:33:51.328Z,-1.60
2022-12-11T04:36:19.683Z,-1.60
2022-12-11T04:38:47.827Z,-1.70
2022-12-11T04:41:17.770Z,-1.70
2022-12-11T04:43:46.267Z,-1.60
2022-12-11T04:46:16.833Z,-1.60
2022-12-11T04:48:46.833Z,-1.40
2022-12-11T04:51:15.436Z,-1.40
2022-12-11T04:53:44.037Z,-1.30
2022-12-11T04:56:13.978Z,-1.30
2022-12-11T04:58:43.391Z,-1.50
2022-12-11T05:01:12.553Z,-1.50
2022-12-11T05:03:41.441Z,-1.60
2022-12-11T05:06:11.881Z,-1.60
2022-12-11T05:08:41.833Z,-1.60
2022-12-11T05:11:12.037Z,-1.60
2022-12-11T05:13:40.536Z,-1.60
2022-12-11T05:16:10.350Z,-1.60
2022-12-11T05:18:38.848Z,-1.70
2022-12-11T05:21:10.939Z,-1.70
2022-12-11T05:23:39.535Z,-1.70
2022-12-11T05:26:10.168Z,-1.80
2022-12-11T05:28:39.672Z,-1.80
2022-12-11T05:31:09.694Z,-1.90
2022-12-11T05:33:37.889Z,-1.90
2022-12-11T05:36:07.376Z,-1.90
2022-12-11T05:38:37.347Z,-1.80
2022-12-11T05:41:07.953Z,-1.80
2022-12-11T05:43:37.351Z,-1.80
2022-12-11T05:46:09.223Z,-1.80
2022-12-11T05:48:38.395Z,-1.80
2022-12-11T05:51:08.378Z,-1.80
2022-12-11T05:53:38.895Z,-1.70
2022-12-11T05:56:09.369Z,-1.70
2022-12-11T05:58:37.866Z,-1.70
2022-12-11T06:01:09.802Z,-1.70
2022-12-11T06:03:38.090Z,-1.70
2022-12-11T06:06:07.595Z,-1.70
2022-12-11T06:08:37.431Z,-1.70
2022-12-11T06:11:06.295Z,-1.70
2022-12-11T06:13:34.726Z,-1.70
2022-12-11T06:16:04.047Z,-1.70
2022-12-11T06:18:32.394Z,-1.60
2022-12-11T06:21:00.511Z,-1.70
2022-12-11T06:23:28.649Z,-1.70
2022-12-11T06:25:58.247Z,-1.80
2022-12-11T06:28:26.497Z,-1.80
2022-12-11T06:30:54.850Z,-1.80
2022-12-11T06:33:22.975Z,-1.70
2022-12-11T06:35:51.149Z,-1.70
2022-12-11T06:38:19.352Z,-1.70
2022-12-11T06:40:47.541Z,-1.70
2022-12-11T06:43:17.220Z,-1.60
2022-12-11T06:45:45.354Z,-1.50
2022-12-11T06:48:13.499Z,-1.50
2022-12-11T06:50:41.634Z,-1.50
2022-12-11T06:53:10.692Z,-1.60
2022-12-11T06:55:39.149Z,-1.70
2022-12-11T06:58:07.276Z,-1.70
2022-12-11T07:00:37.724Z,-1.70
2022-12-11T07:03:06.684Z,-1.70
2022-12-11T07:05:35.215Z,-1.70
2022-12-11T07:08:03.429Z,-1.80
2022-12-11T07:10:31.773Z,-1.80
2022-12-11T07:12:59.852Z,-1.80
2022-12-11T07:15:27.980Z,-1.80
2022-12-11T07:17:57.477Z,-1.80
2022-12-11T07:20:25.625Z,-1.80
2022-12-11T07:22:55.386Z,-1.80
2022-12-11T07:25:23.509Z,-1.80
2022-12-11T07:27:51.656Z,-1.80
2022-12-11T07:30:19.909Z,-1.80
2022-12-11T07:32:48.047Z,-1.80
2022-12-11T07:35:17.719Z,-1.70
2022-12-11T07:37:46.069Z,-1.70
2022-12-11T07:40:15.004Z,-1.70
2022-12-11T07:42:46.319Z,-1.60
2022-12-11T07:45:14.724Z,-1.70
2022-12-11T07:47:42.885Z,-1.60
2022-12-11T07:50:11.300Z,-1.50
2022-12-11T07:52:40.796Z,-1.40
2022-12-11T07:55:09.854Z,-1.50
2022-12-11T07:57:38.114Z,-1.50
2022-12-11T08:00:07.555Z,-1.50
2022-12-11T08:02:37.380Z,-1.50
2022-12-11T08:05:06.276Z,-1.50
2022-12-11T08:07:36.049Z,-1.50
2022-12-11T08:10:06.223Z,-1.50
2022-12-11T08:12:34.462Z,-1.50
2022-12-11T08:15:02.563Z,-1.40
2022-12-11T08:17:34.009Z,-1.40
2022-12-11T08:20:07.444Z,-1.30
2022-12-11T08:22:35.761Z,-1.30
2022-12-11T08:25:05.553Z,-1.20
2022-12-11T08:27:33.638Z,-1.20
2022-12-11T08:30:02.037Z,-1.20
2022-12-11T08:32:30.131Z,-1.20
2022-12-11T08:34:58.252Z,-1.10
2022-12-11T08:37:26.367Z,-0.90
2022-12-11T08:39:54.518Z,-0.80
2022-12-11T08:42:24.001Z,-0.70
2022-12-11T08:44:52.153Z,-0.60
2022-12-11T08:47:20.361Z,-0.50
2022-12-11T08:49:48.481Z,-0.40
2022-12-11T08:52:16.608Z,-0.50
2022-12-11T08:54:44.747Z,-0.50
2022-12-11T08:57:12.840Z,-0.60
2022-12-11T08:59:42.430Z,-0.70
2022-12-11T09:02:12.591Z,-0.80
2022-12-11T09:04:40.948Z,-0.90
2022-12-11T09:07:09.153Z,-1.00
2022-12-11T09:09:37.366Z,-1.10
2022-12-11T09:12:05.901Z,-1.10
2022-12-11T09:14:34.077Z,-0.90
2022-12-11T09:17:05.449Z,-0.80
2022-12-11T09:19:33.620Z,-0.80
2022-12-11T09:22:01.745Z,-0.70
2022-12-11T09:24:29.914Z,-0.60
2022-12-11T09:26:58.037Z,-0.60
2022-12-11T09:29:26.113Z,-0.50
2022-12-11T09:31:54.192Z,-0.50
2022-12-11T09:34:29.079Z,-0.50
2022-12-11T09:36:57.680Z,-0.50
2022-12-11T09:39:25.866Z,-0.50
2022-12-11T09:42:02.626Z,-0.40
2022-12-11T09:44:38.902Z,-0.40
2022-12-11T09:47:25.929Z,-0.30
2022-12-11T09:50:03.787Z,-0.50
2022-12-11T09:52:37.771Z,-0.60
2022-12-11T09:55:14.907Z,-0.70
2022-12-11T09:57:53.508Z,-0.70
2022-12-11T10:00:27.592Z,-0.60
2022-12-11T10:03:26.956Z,-0.70
2022-12-11T10:06:05.085Z,-0.80
2022-12-11T10:08:45.077Z,-0.80
2022-12-11T10:11:41.039Z,-0.70
2022-12-11T10:14:18.364Z,-0.70
2022-12-11T10:16:50.080Z,-0.70
2022-12-11T10:19:22.099Z,-0.70
2022-12-11T10:21:53.468Z,-0.70
2022-12-11T10:25:07.615Z,-0.80
2022-12-11T10:27:21.369Z,-0.80
2022-12-11T10:29:54.145Z,-0.60
2022-12-11T10:32:25.710Z,-0.60
2022-12-11T10:35:00.340Z,-0.30
2022-12-11T10:37:29.963Z,-0.40
2022-12-11T10:39:58.047Z,-0.40
2022-12-11T10:42:26.190Z,-0.40
2022-12-11T10:44:59.112Z,-0.50
2022-12-11T10:47:27.275Z,-0.50
2022-12-11T10:49:58.371Z,-0.50
2022-12-11T10:52:32.729Z,-0.50
2022-12-11T10:55:03.593Z,-0.50
2022-12-11T10:57:35.050Z,-0.50
2022-12-11T11:00:05.271Z,-0.30
2022-12-11T11:02:35.920Z,-0.30
2022-12-11T11:05:14.193Z,-0.30
2022-12-11T11:07:43.748Z,-0.30
2022-12-11T11:10:18.840Z,-0.20
2022-12-11T11:12:48.675Z,-0.20
2022-12-11T11:15:19.731Z,-0.20
2022-12-11T11:17:55.001Z,-0.30
2022-12-11T11:20:25.846Z,-0.40
2022-12-11T11:22:58.016Z,-0.20
2022-12-11T11:25:28.689Z,-0.20
2022-12-11T11:27:58.683Z,-0.10
2022-12-11T11:30:29.973Z,-0.20
2022-12-11T11:33:00.898Z,-0.20
2022-12-11T11:35:31.816Z,-0.30
2022-12-11T11:38:07.005Z,-0.30
2022-12-11T11:40:40.411Z,-0.30
2022-12-11T11:43:17.564Z,-0.30
2022-12-11T11:45:52.750Z,-0.20
2022-12-11T11:48:31.931Z,-0.30
2022-12-11T11:51:00.600Z,-0.30
2022-12-11T11:53:37.364Z,-0.20
2022-12-11T11:56:17.478Z,-0.30
2022-12-11T11:58:50.972Z,-0.30
2022-12-11T12:01:20.782Z,-0.20
2022-12-11T12:03:50.869Z,-0.20
2022-12-11T12:06:28.029Z,-0.30
2022-12-11T12:09:04.555Z,-0.30
2022-12-11T12:11:37.714Z,-0.30
2022-12-11T12:14:43.663Z,-0.20
2022-12-11T12:17:13.795Z,-0.10
2022-12-11T12:19:51.673Z,-0.10
2022-12-11T12:22:34.675Z,-0.10
2022-12-11T12:25:16.759Z,0.00
2022-12-11T12:27:52.764Z,-0.10
2022-12-11T12:30:23.645Z,-0.10
2022-12-11T12:33:05.846Z,-0.20
2022-12-11T12:35:37.097Z,-0.20
2022-12-11T12:38:15.971Z,-0.30
2022-12-11T12:40:58.766Z,-0.20
2022-12-11T12:43:48.104Z,-0.30
2022-12-11T12:46:31.300Z,-0.20
2022-12-11T12:49:00.337Z,-0.20
2022-12-11T12:51:29.899Z,-0.20
2022-12-11T12:54:01.418Z,-0.10
2022-12-11T12:56:33.118Z,-0.10
2022-12-11T12:59:01.286Z,-0.10
2022-12-11T13:01:31.508Z,-0.20
2022-12-11T13:04:02.197Z,-0.20
2022-12-11T13:06:34.062Z,-0.30
2022-12-11T13:09:14.849Z,-0.40
2022-12-11T13:11:44.956Z,-0.40
2022-12-11T13:14:28.604Z,-0.40
2022-12-11T13:17:09.240Z,-0.50
2022-12-11T13:19:42.262Z,-0.50
2022-12-11T13:22:24.029Z,-0.50
2022-12-11T13:25:01.785Z,-0.50
2022-12-11T13:27:40.786Z,-0.50
2022-12-11T13:30:23.429Z,-0.60
2022-12-11T13:33:01.723Z,-0.50
2022-12-11T13:35:30.609Z,-0.60
2022-12-11T13:38:05.515Z,-0.60
2022-12-11T13:40:41.306Z,-0.60
2022-12-11T13:43:19.488Z,-0.60
2022-12-11T13:45:51.006Z,-0.50
2022-12-11T13:48:25.777Z,-0.40
2022-12-11T13:50:56.083Z,-0.50
2022-12-11T13:53:24.889Z,-0.60
2022-12-11T13:56:00.281Z,-0.60
2022-12-11T13:58:31.154Z,-0.60
2022-12-11T14:01:11.181Z,-0.70
2022-12-11T14:03:41.434Z,-0.60
2022-12-11T14:06:18.284Z,-0.60
2022-12-11T14:08:51.449Z,-0.50
2022-12-11T14:11:24.953Z,-0.40
2022-12-11T14:13:54.941Z,-0.40
2022-12-11T14:16:26.340Z,-0.50
2022-12-11T14:18:55.844Z,-0.40
2022-12-11T14:21:26.022Z,-0.40
2022-12-11T14:23:56.176Z,-0.40
2022-12-11T14:26:26.843Z,-0.60
2022-12-11T14:28:56.680Z,-0.50
2022-12-11T14:31:32.030Z,-0.60
2022-12-11T14:34:04.965Z,-0.60
2022-12-11T14:36:34.653Z,-0.50
2022-12-11T14:39:08.111Z,-0.50
2022-12-11T14:41:43.945Z,-0.50
2022-12-11T14:44:17.436Z,-0.40
2022-12-11T14:46:47.654Z,-0.40
2022-12-11T14:49:21.670Z,-0.40
2022-12-11T14:51:51.676Z,-0.50
2022-12-11T14:54:30.797Z,-0.50
2022-12-11T14:57:00.097Z,-0.50
2022-12-11T14:59:32.497Z,-0.50
2022-12-11T15:02:02.684Z,-0.50
2022-12-11T15:04:34.013Z,-0.60
2022-12-11T15:07:02.450Z,-0.70
2022-12-11T15:09:38.113Z,-0.60
2022-12-11T15:12:12.355Z,-0.70
2022-12-11T15:14:49.031Z,-0.70
2022-12-11T15:17:18.641Z,-0.70
2022-12-11T15:19:55.732Z,-0.80
2022-12-11T15:22:33.231Z,-0.70
2022-12-11T15:25:01.751Z,-0.70
2022-12-11T15:27:35.637Z,-0.80
2022-12-11T15:30:17.731Z,-0.90
2022-12-11T15:32:45.898Z,-0.90
2022-12-11T15:35:25.873Z,-0.90
2022-12-11T15:37:55.129Z,-0.70
2022-12-11T15:40:24.021Z,-0.70
2022-12-11T15:42:52.840Z,-0.60
2022-12-11T15:45:24.529Z,-0.50
2022-12-11T15:47:53.274Z,-0.60
2022-12-11T15:50:24.020Z,-0.50
2022-12-11T15:52:54.347Z,-0.50
2022-12-11T15:55:23.728Z,-0.40
2022-12-11T15:57:55.243Z,-0.50
2022-12-11T16:00:27.543Z,-0.60
2022-12-11T16:02:56.044Z,-0.60
2022-12-11T16:05:24.670Z,-0.70
2022-12-11T16:07:54.109Z,-0.60
2022-12-11T16:10:22.877Z,-0.70
2022-12-11T16:12:50.950Z,-0.70
2022-12-11T16:15:23.481Z,-0.80
2022-12-11T16:18:01.503Z,-0.70
2022-12-11T16:20:30.903Z,-0.70
2022-12-11T16:22:59.419Z,-0.70
2022-12-11T16:25:28.260Z,-0.70
2022-12-11T16:27:57.597Z,-0.70
2022-12-11T16:30:26.478Z,-0.70
2022-12-11T16:32:56.435Z,-0.80
2022-12-11T16:35:24.717Z,-0.70
2022-12-11T16:37:53.531Z,-0.60
2022-12-11T16:40:22.258Z,-0.70
2022-12-11T16:42:50.613Z,-0.60
2022-12-11T16:45:20.826Z,-0.50
2022-12-11T16:47:49.157Z,-0.50
2022-12-11T16:50:18.943Z,-0.50
2022-12-11T16:52:47.521Z,-0.50
2022-12-11T16:55:16.019Z,-0.70
2022-12-11T16:57:44.140Z,-0.80
2022-12-11T17:00:14.183Z,-0.90
2022-12-11T17:02:42.782Z,-0.90
2022-12-11T17:05:11.453Z,-0.80
2022-12-11T17:07:41.484Z,-0.70
2022-12-11T17:10:10.471Z,-0.70
2022-12-11T17:12:39.068Z,-0.60
2022-12-11T17:15:08.272Z,-0.60
2022-12-11T17:17:36.454Z,-0.60
2022-12-11T17:20:05.053Z,-0.60
2022-12-11T17:22:33.194Z,-0.50
2022-12-11T17:25:02.916Z,-0.40
2022-12-11T17:27:31.226Z,-0.40
2022-12-11T17:29:59.417Z,-0.30
2022-12-11T17:32:27.539Z,-0.40
2022-12-11T17:34:55.704Z,-0.40
2022-12-11T17:37:23.795Z,-0.50
2022-12-11T17:39:51.882Z,-0.50
2022-12-11T17:42:21.340Z,-0.50
2022-12-11T17:44:49.414Z,-0.60
2022-12-11T17:47:17.542Z,-0.60
2022-12-11T17:49:45.652Z,-0.70
2022-12-11T17:52:13.755Z,-0.70
2022-12-11T17:54:41.832Z,-0.70
2022-12-11T17:57:10.045Z,-0.70
2022-12-11T17:59:39.577Z,-0.70
2022-12-11T18:02:07.942Z,-0.70
2022-12-11T18:04:38.295Z,-0.80
2022-12-11T18:07:06.472Z,-0.80
2022-12-11T18:09:34.604Z,-0.70
2022-12-11T18:12:02.684Z,-0.80
2022-12-11T18:14:30.773Z,-0.80
2022-12-11T18:17:00.231Z,-0.90
2022-12-11T18:19:28.669Z,-0.90
2022-12-11T18:21:57.303Z,-0.90
2022-12-11T18:24:31.711Z,-0.80
2022-12-11T18:27:00.176Z,-0.80
2022-12-11T18:29:28.768Z,-0.80
2022-12-11T18:31:57.019Z,-0.80
2022-12-11T18:34:26.498Z,-0.80
2022-12-11T18:36:54.637Z,-0.70
2022-12-11T18:39:22.817Z,-0.70
2022-12-11T18:42:24.018Z,-0.70
2022-12-11T18:44:39.015Z,-0.70
2022-12-11T18:47:07.131Z,-0.70
2022-12-11T18:49:37.709Z,-0.70
2022-12-11T18:52:06.270Z,-0.70
2022-12-11T18:54:34.722Z,-0.70
2022-12-11T18:57:03.079Z,-0.70
2022-12-11T18:59:31.217Z,-0.60
2022-12-11T19:01:59.614Z,-0.60
2022-12-11T19:04:27.950Z,-0.60
2022-12-11T19:06:57.472Z,-0.60
2022-12-11T19:09:25.947Z,-0.60
2022-12-11T19:11:54.022Z,-0.60
2022-12-11T19:14:22.148Z,-0.70
2022-12-11T19:16:50.807Z,-0.70
2022-12-11T19:19:20.734Z,-0.70
2022-12-11T19:21:50.085Z,-0.70
2022-12-11T19:24:22.940Z,-0.70
2022-12-11T19:26:51.423Z,-0.60
2022-12-11T19:29:22.482Z,-0.60
2022-12-11T19:31:50.986Z,-0.70
2022-12-11T19:34:19.454Z,-0.60
2022-12-11T19:36:47.557Z,-0.70
2022-12-11T19:39:15.647Z,-0.70
2022-12-11T19:41:45.115Z,-0.70
2022-12-11T19:44:13.980Z,-0.70
2022-12-11T19:46:42.188Z,-0.60
2022-12-11T19:49:12.356Z,-0.60
2022-12-11T19:51:42.204Z,-0.50
2022-12-11T19:54:13.566Z,-0.60
2022-12-11T19:56:42.337Z,-0.50
2022-12-11T19:59:15.528Z,-0.50
2022-12-11T20:01:44.585Z,-0.50
2022-12-11T20:04:14.807Z,-0.50
2022-12-11T20:06:46.395Z,-0.60
2022-12-11T20:09:15.530Z,-0.50
2022-12-11T20:11:45.798Z,-0.50
2022-12-11T20:14:21.240Z,-0.50
2022-12-11T20:19:38.057Z,-0.60
2022-12-11T20:22:09.239Z,-0.50
2022-12-11T20:24:38.152Z,-0.50
2022-12-11T20:27:06.275Z,-0.50
2022-12-11T20:29:35.994Z,-0.50
2022-12-11T20:32:04.280Z,-0.50
2022-12-11T20:34:32.940Z,-0.50
2022-12-11T20:37:01.383Z,-0.50
2022-12-11T20:39:29.562Z,-0.50
2022-12-11T20:41:57.671Z,-0.50
2022-12-11T20:44:26.167Z,-0.50
2022-12-11T20:46:57.301Z,-0.60
2022-12-11T20:49:27.528Z,-0.50
2022-12-11T20:51:55.643Z,-0.50
2022-12-11T20:54:23.879Z,-0.50
2022-12-11T20:56:52.169Z,-0.60
2022-12-11T20:59:20.396Z,-0.60
2022-12-11T21:01:49.409Z,-0.60
2022-12-11T21:04:19.029Z,-0.60
2022-12-11T21:06:47.389Z,-0.70
2022-12-11T21:09:17.734Z,-0.60
2022-12-11T21:11:46.188Z,-0.60
2022-12-11T21:14:14.784Z,-0.60
2022-12-11T21:16:43.274Z,-0.70
2022-12-11T21:19:16.685Z,-0.60
2022-12-11T21:21:46.934Z,-0.70
2022-12-11T21:24:17.096Z,-0.70
2022-12-11T21:26:45.523Z,-0.60
2022-12-11T21:29:13.846Z,-0.40
2022-12-11T21:31:42.211Z,-0.50
2022-12-11T21:34:10.388Z,-0.50
2022-12-11T21:36:38.565Z,-0.50
2022-12-11T21:39:08.321Z,-0.50
2022-12-11T21:41:36.478Z,-0.60
2022-12-11T21:46:54.054Z,-0.60
2022-12-11T21:49:22.169Z,-0.60
2022-12-11T21:51:50.385Z,-0.60
2022-12-11T21:54:20.688Z,-0.70
2022-12-11T21:56:48.961Z,-0.60
2022-12-11T21:59:17.240Z,-0.60
2022-12-11T22:01:47.097Z,-0.70
2022-12-11T22:04:16.166Z,-0.70
2022-12-11T22:06:47.117Z,-0.70
2022-12-11T22:09:17.841Z,-0.70
2022-12-11T22:11:49.840Z,-0.70
2022-12-11T22:14:19.808Z,-0.70
2022-12-11T22:16:48.004Z,-0.60
2022-12-11T22:19:16.081Z,-0.70
2022-12-11T22:21:44.406Z,-0.70
2022-12-11T22:24:12.692Z,-0.70
2022-12-11T22:26:41.746Z,-0.70
2022-12-11T22:29:11.681Z,-0.70
2022-12-11T22:31:40.330Z,-0.70
2022-12-11T22:34:08.674Z,-0.70
2022-12-11T22:36:38.322Z,-0.80
2022-12-11T22:39:06.570Z,-0.80
2022-12-11T22:41:36.187Z,-0.80
2022-12-11T22:44:04.284Z,-0.80
2022-12-11T22:46:34.374Z,-0.90
2022-12-11T22:49:02.842Z,-0.90
2022-12-11T22:51:30.991Z,-0.90
2022-12-11T22:53:59.522Z,-0.90
2022-12-11T22:56:27.806Z,-0.90
2022-12-11T22:58:57.612Z,-0.90
2022-12-11T23:01:28.241Z,-0.90
2022-12-11T23:03:58.296Z,-0.80
2022-12-11T23:06:28.286Z,-0.80
2022-12-11T23:09:01.097Z,-0.80
2022-12-11T23:11:32.147Z,-0.80
2022-12-11T23:14:01.714Z,-0.90
2022-12-11T23:16:30.806Z,-0.90
2022-12-11T23:19:02.280Z,-1.00
2022-12-11T23:21:31.160Z,-1.00
2022-12-11T23:24:00.231Z,-1.00
2022-12-11T23:26:30.160Z,-1.10
2022-12-11T23:29:00.250Z,-1.10
2022-12-11T23:31:30.239Z,-1.10
2022-12-11T23:34:00.593Z,-1.00
2022-12-11T23:36:29.875Z,-1.00
2022-12-11T23:38:58.243Z,-1.00
2022-12-11T23:41:26.730Z,-1.00
2022-12-11T23:43:55.314Z,-1.10
2022-12-11T23:46:25.932Z,-1.10
2022-12-11T23:48:55.260Z,-1.10
2022-12-11T23:51:26.352Z,-1.10
2022-12-11T23:53:56.144Z,-1.10
2022-12-11T23:56:26.922Z,-1.10
2022-12-11T23:58:56.136Z,-1.20
